createdAt,value
2023-04-07T00:03:06.994Z,2.56
2023-04-07T00:08:10.606Z,2.52
2023-04-07T00:13:13.568Z,2.51
2023-04-07T00:18:16.376Z,2.53
2023-04-07T00:23:19.946Z,2.49
2023-04-07T00:28:22.932Z,2.49
2023-04-07T00:33:26.291Z,2.49
2023-04-07T00:38:29.229Z,2.46
2023-04-07T00:43:32.281Z,2.46
2023-04-07T00:48:36.599Z,2.47
2023-04-07T00:53:39.794Z,2.49
2023-04-07T00:58:44.484Z,2.50
2023-04-07T01:03:59.445Z,2.56
2023-04-07T01:09:12.264Z,2.60
2023-04-07T01:14:18.146Z,2.61
2023-04-07T01:19:53.344Z,2.61
2023-04-07T01:26:00.539Z,2.61
2023-04-07T01:31:05.711Z,2.62
2023-04-07T01:36:10.438Z,2.62
2023-04-07T01:41:15.586Z,2.63
2023-04-07T01:46:18.426Z,2.62
2023-04-07T01:51:23.440Z,2.62
2023-04-07T01:56:26.432Z,2.61
2023-04-07T02:01:29.959Z,2.58
2023-04-07T02:06:39.655Z,2.55
2023-04-07T02:11:45.527Z,2.53
2023-04-07T02:16:49.306Z,2.50
2023-04-07T02:21:53.180Z,2.48
2023-04-07T02:26:56.412Z,2.48
2023-04-07T02:31:59.211Z,2.41
2023-04-07T02:37:02.271Z,2.39
2023-04-07T02:42:05.704Z,2.34
2023-04-07T02:47:08.936Z,2.32
2023-04-07T02:52:12.717Z,2.34
2023-04-07T02:57:15.765Z,2.30
2023-04-07T03:02:19.317Z,2.30
2023-04-07T03:07:22.343Z,2.27
2023-04-07T03:12:25.709Z,2.23
2023-04-07T03:17:28.756Z,2.22
2023-04-07T03:22:32.085Z,2.25
2023-04-07T03:27:35.086Z,2.26
2023-04-07T03:32:38.127Z,2.28
2023-04-07T03:37:41.158Z,2.28
2023-04-07T03:42:44.075Z,2.29
2023-04-07T03:47:47.283Z,2.30
2023-04-07T03:52:50.229Z,2.31
2023-04-07T03:57:53.273Z,2.35
2023-04-07T04:02:56.276Z,2.38
2023-04-07T04:07:59.260Z,2.39
2023-04-07T04:13:04.072Z,2.46
2023-04-07T04:18:07.098Z,2.53
2023-04-07T04:23:10.168Z,2.59
2023-04-07T04:28:13.250Z,2.67
2023-04-07T04:33:16.182Z,2.73
2023-04-07T04:38:19.626Z,2.79
2023-04-07T04:43:22.560Z,2.83
2023-04-07T04:48:25.404Z,2.90
2023-04-07T04:53:28.788Z,2.89
2023-04-07T04:58:32.393Z,2.91
2023-04-07T05:03:36.017Z,2.99
2023-04-07T05:08:39.030Z,3.05
2023-04-07T05:13:42.014Z,3.15
2023-04-07T05:18:44.922Z,3.30
2023-04-07T05:23:48.042Z,3.48
2023-04-07T05:28:51.030Z,3.62
2023-04-07T05:33:53.913Z,3.81
2023-04-07T05:38:56.912Z,3.93
2023-04-07T05:43:59.700Z,3.98
2023-04-07T05:49:16.812Z,4.01
2023-04-07T05:54:22.759Z,4.03
2023-04-07T05:59:26.536Z,4.07
2023-04-07T06:04:29.703Z,4.19
2023-04-07T06:09:32.726Z,4.32
2023-04-07T06:14:35.719Z,4.35
2023-04-07T06:19:38.701Z,4.45
2023-04-07T06:24:41.881Z,4.54
2023-04-07T06:29:44.968Z,4.64
2023-04-07T06:34:48.014Z,4.71
2023-04-07T06:39:51.140Z,4.78
2023-04-07T06:44:53.929Z,4.67
2023-04-07T06:49:56.837Z,4.61
2023-04-07T06:54:59.800Z,4.41
2023-04-07T07:00:02.982Z,4.04
2023-04-07T07:05:11.669Z,3.89
2023-04-07T07:10:14.444Z,3.69
2023-04-07T07:15:18.166Z,3.58
2023-04-07T07:20:23.548Z,3.63
2023-04-07T07:25:29.705Z,3.73
2023-04-07T07:30:32.847Z,3.72
2023-04-07T07:35:37.971Z,3.66
2023-04-07T07:40:41.233Z,3.84
2023-04-07T07:45:44.381Z,3.89
2023-04-07T07:50:48.474Z,3.98
2023-04-07T07:55:51.927Z,3.97
2023-04-07T08:00:55.094Z,4.02
2023-04-07T08:05:58.149Z,4.16
2023-04-07T08:11:01.309Z,4.28
2023-04-07T08:16:04.616Z,4.34
2023-04-07T08:21:07.690Z,4.40
2023-04-07T08:26:11.105Z,4.52
2023-04-07T08:31:14.060Z,4.59
2023-04-07T08:36:17.013Z,4.61
2023-04-07T08:41:47.284Z,4.84
2023-04-07T08:46:56.200Z,4.90
2023-04-07T08:52:04.060Z,5.01
2023-04-07T08:57:09.091Z,5.29
2023-04-07T09:02:12.175Z,5.46
2023-04-07T09:07:15.820Z,5.52
2023-04-07T09:12:19.078Z,5.72
2023-04-07T09:17:22.396Z,5.87
2023-04-07T09:22:54.970Z,5.92
2023-04-07T09:28:04.842Z,6.02
2023-04-07T09:33:07.939Z,6.26
2023-04-07T09:38:11.257Z,6.34
2023-04-07T09:43:19.492Z,6.43
2023-04-07T09:48:22.424Z,6.53
2023-04-07T09:53:49.583Z,6.49
2023-04-07T09:58:53.349Z,6.49
2023-04-07T10:03:57.141Z,6.27
2023-04-07T10:09:02.052Z,6.05
2023-04-07T10:14:05.709Z,6.04
2023-04-07T10:19:09.295Z,6.03
2023-04-07T10:24:51.755Z,6.06
2023-04-07T10:29:55.721Z,6.05
2023-04-07T10:35:01.312Z,6.02
2023-04-07T10:40:19.625Z,6.14
2023-04-07T10:45:48.391Z,6.30
2023-04-07T10:51:07.975Z,6.33
2023-04-07T10:56:11.164Z,6.39
2023-04-07T11:01:14.071Z,6.46
2023-04-07T11:06:17.071Z,6.42
2023-04-07T11:11:41.759Z,6.44
2023-04-07T11:16:45.864Z,6.42
2023-04-07T11:21:49.291Z,6.40
2023-04-07T11:26:52.278Z,6.46
2023-04-07T11:31:58.460Z,6.46
2023-04-07T11:37:25.001Z,6.51
2023-04-07T11:42:36.835Z,6.47
2023-04-07T11:47:40.968Z,6.51
2023-04-07T11:52:48.875Z,6.56
2023-04-07T11:57:52.781Z,6.57
2023-04-07T12:02:56.741Z,6.64
2023-04-07T12:08:00.369Z,6.70
2023-04-07T12:13:03.566Z,6.72
2023-04-07T12:18:06.976Z,6.66
2023-04-07T12:23:09.999Z,6.51
2023-04-07T12:28:12.967Z,6.56
2023-04-07T12:33:15.987Z,6.51
2023-04-07T12:38:19.098Z,6.62
2023-04-07T12:43:22.075Z,6.76
2023-04-07T12:48:27.396Z,6.85
2023-04-07T12:53:30.420Z,6.88
2023-04-07T12:58:33.455Z,6.85
2023-04-07T13:03:36.604Z,6.77
2023-04-07T13:08:40.841Z,6.71
2023-04-07T13:13:45.087Z,6.63
2023-04-07T13:18:48.091Z,6.61
2023-04-07T13:23:51.686Z,6.61
2023-04-07T13:28:54.753Z,6.57
2023-04-07T13:33:57.727Z,6.56
2023-04-07T13:39:00.790Z,6.63
2023-04-07T13:44:03.781Z,6.65
2023-04-07T13:49:07.505Z,6.63
2023-04-07T13:54:10.758Z,6.57
2023-04-07T13:59:13.694Z,6.47
2023-04-07T14:04:16.754Z,6.40
2023-04-07T14:09:20.029Z,6.48
2023-04-07T14:14:23.387Z,6.55
2023-04-07T14:19:26.498Z,6.54
2023-04-07T14:24:29.462Z,6.56
2023-04-07T14:29:32.777Z,6.58
2023-04-07T14:34:35.919Z,6.62
2023-04-07T14:39:39.519Z,6.59
2023-04-07T14:44:42.885Z,6.55
2023-04-07T14:49:45.924Z,6.53
2023-04-07T14:54:49.122Z,6.54
2023-04-07T14:59:52.181Z,6.50
2023-04-07T15:04:55.794Z,6.51
2023-04-07T15:09:59.906Z,6.50
2023-04-07T15:15:03.949Z,6.51
2023-04-07T15:20:07.576Z,6.43
2023-04-07T15:25:10.665Z,6.44
2023-04-07T15:30:13.829Z,6.41
2023-04-07T15:35:17.331Z,6.36
2023-04-07T15:40:20.748Z,6.33
2023-04-07T15:45:23.897Z,6.30
2023-04-07T15:50:29.924Z,6.26
2023-04-07T15:55:34.801Z,6.24
2023-04-07T16:00:39.305Z,6.21
2023-04-07T16:05:42.301Z,6.16
2023-04-07T16:10:45.760Z,6.13
2023-04-07T16:15:48.665Z,6.10
2023-04-07T16:20:51.811Z,6.06
2023-04-07T16:25:54.717Z,6.02
2023-04-07T16:30:57.547Z,5.98
2023-04-07T16:36:00.531Z,5.96
2023-04-07T16:41:04.811Z,5.91
2023-04-07T16:46:09.280Z,5.85
2023-04-07T16:51:19.594Z,5.74
2023-04-07T16:56:24.854Z,5.60
2023-04-07T17:01:30.143Z,5.48
2023-04-07T17:06:33.207Z,5.33
2023-04-07T17:11:36.205Z,5.21
2023-04-07T17:16:39.765Z,5.11
2023-04-07T17:21:43.317Z,5.01
2023-04-07T17:26:46.680Z,4.96
2023-04-07T17:31:49.947Z,4.95
2023-04-07T17:36:52.891Z,4.90
2023-04-07T17:41:55.771Z,4.79
2023-04-07T17:46:59.063Z,4.75
2023-04-07T17:52:02.056Z,4.71
2023-04-07T17:57:06.518Z,4.69
2023-04-07T18:02:10.312Z,4.70
2023-04-07T18:07:13.581Z,4.73
2023-04-07T18:12:16.499Z,4.70
2023-04-07T18:17:19.495Z,4.62
2023-04-07T18:22:22.680Z,4.53
2023-04-07T18:27:28.407Z,4.49
2023-04-07T18:32:31.441Z,4.47
2023-04-07T18:37:34.532Z,4.47
2023-04-07T18:42:37.467Z,4.46
2023-04-07T18:47:40.525Z,4.43
2023-04-07T18:52:43.654Z,4.45
2023-04-07T18:57:46.790Z,4.45
2023-04-07T19:02:49.894Z,4.46
2023-04-07T19:07:53.009Z,4.44
2023-04-07T19:12:56.040Z,4.40
2023-04-07T19:17:59.797Z,4.35
2023-04-07T19:23:08.297Z,4.36
2023-04-07T19:28:11.606Z,4.27
2023-04-07T19:33:14.728Z,4.19
2023-04-07T19:38:18.319Z,4.13
2023-04-07T19:43:21.327Z,4.08
2023-04-07T19:48:25.352Z,4.03
2023-04-07T19:53:29.377Z,4.00
2023-04-07T19:58:34.475Z,3.93
2023-04-07T20:03:39.897Z,3.97
2023-04-07T20:08:44.327Z,3.96
2023-04-07T20:13:49.153Z,3.95
2023-04-07T20:18:52.366Z,3.94
2023-04-07T20:23:55.274Z,3.91
2023-04-07T20:28:58.244Z,3.81
2023-04-07T20:34:01.363Z,3.80
2023-04-07T20:39:04.373Z,3.72
2023-04-07T20:44:09.447Z,3.73
2023-04-07T20:49:12.474Z,3.69
2023-04-07T20:54:17.019Z,3.70
2023-04-07T20:59:19.923Z,3.68
2023-04-07T21:04:24.764Z,3.69
2023-04-07T21:09:28.002Z,3.71
2023-04-07T21:14:32.208Z,3.72
2023-04-07T21:19:36.733Z,3.69
2023-04-07T21:24:40.246Z,3.65
2023-04-07T21:29:43.234Z,3.58
2023-04-07T21:34:46.248Z,3.51
2023-04-07T21:39:52.767Z,3.51
2023-04-07T21:44:55.889Z,3.47
2023-04-07T21:49:59.870Z,3.46
2023-04-07T21:55:02.884Z,3.41
2023-04-07T22:00:09.626Z,3.39
2023-04-07T22:05:12.701Z,3.36
2023-04-07T22:10:15.815Z,3.25
2023-04-07T22:15:19.047Z,3.14
2023-04-07T22:20:22.356Z,3.00
2023-04-07T22:25:26.012Z,2.91
2023-04-07T22:30:29.073Z,2.82
2023-04-07T22:35:32.186Z,2.75
2023-04-07T22:40:35.403Z,2.71
2023-04-07T22:45:38.383Z,2.69
2023-04-07T22:50:41.292Z,2.74
2023-04-07T22:55:44.393Z,2.77
2023-04-07T23:00:47.909Z,2.83
2023-04-07T23:05:50.917Z,2.83
2023-04-07T23:10:54.031Z,2.80
2023-04-07T23:15:58.122Z,2.77
2023-04-07T23:21:01.647Z,2.69
2023-04-07T23:26:06.796Z,2.57
2023-04-07T23:31:09.884Z,2.54
2023-04-07T23:36:12.835Z,2.55
2023-04-07T23:41:16.437Z,2.57
2023-04-07T23:46:19.581Z,2.60
2023-04-07T23:51:22.927Z,2.62
2023-04-07T23:56:26.224Z,2.66
